sensor_id;sensor_type;location;lat;lon;timestamp;P1;durP1;ratioP1;P2;durP2;ratioP2
11735;SDS011;5924;51.398;7.088;2022-11-18T00:01:20;4.40;;;1.80;;
11735;SDS011;5924;51.398;7.088;2022-11-18T00:03:47;1.77;;;1.67;;
11735;SDS011;5924;51.398;7.088;2022-11-18T00:06:24;2.00;;;1.90;;
11735;SDS011;5924;51.398;7.088;2022-11-18T00:08:53;1.73;;;1.57;;
11735;SDS011;5924;51.398;7.088;2022-11-18T00:11:21;2.63;;;1.30;;
11735;SDS011;5924;51.398;7.088;2022-11-18T00:14:11;3.53;;;1.80;;
11735;SDS011;5924;51.398;7.088;2022-11-18T00:19:25;1.27;;;1.23;;
11735;SDS011;5924;51.398;7.088;2022-11-18T00:21:52;3.93;;;1.30;;
11735;SDS011;5924;51.398;7.088;2022-11-18T00:24:18;1.83;;;1.40;;
11735;SDS011;5924;51.398;7.088;2022-11-18T00:26:44;4.20;;;1.83;;
11735;SDS011;5924;51.398;7.088;2022-11-18T00:29:10;2.93;;;2.00;;
11735;SDS011;5924;51.398;7.088;2022-11-18T00:31:36;2.73;;;1.70;;
11735;SDS011;5924;51.398;7.088;2022-11-18T00:34:02;1.70;;;1.60;;
11735;SDS011;5924;51.398;7.088;2022-11-18T00:36:28;2.20;;;1.90;;
11735;SDS011;5924;51.398;7.088;2022-11-18T00:38:54;1.80;;;1.70;;
11735;SDS011;5924;51.398;7.088;2022-11-18T00:41:20;1.43;;;1.33;;
11735;SDS011;5924;51.398;7.088;2022-11-18T00:43:45;1.93;;;1.80;;
11735;SDS011;5924;51.398;7.088;2022-11-18T00:46:11;3.07;;;1.60;;
11735;SDS011;5924;51.398;7.088;2022-11-18T00:48:37;2.67;;;1.80;;
11735;SDS011;5924;51.398;7.088;2022-11-18T00:53:39;3.50;;;1.53;;
11735;SDS011;5924;51.398;7.088;2022-11-18T00:56:05;3.90;;;1.50;;
11735;SDS011;5924;51.398;7.088;2022-11-18T00:58:32;1.60;;;1.50;;
11735;SDS011;5924;51.398;7.088;2022-11-18T01:00:58;1.90;;;1.70;;
11735;SDS011;5924;51.398;7.088;2022-11-18T01:03:24;3.80;;;1.70;;
11735;SDS011;5924;51.398;7.088;2022-11-18T01:05:51;2.70;;;1.40;;
11735;SDS011;5924;51.398;7.088;2022-11-18T01:08:16;1.90;;;1.70;;
11735;SDS011;5924;51.398;7.088;2022-11-18T01:10:43;1.53;;;1.50;;
11735;SDS011;5924;51.398;7.088;2022-11-18T01:13:11;4.53;;;1.30;;
11735;SDS011;5924;51.398;7.088;2022-11-18T01:15:54;2.80;;;1.50;;
11735;SDS011;5924;51.398;7.088;2022-11-18T01:18:22;1.77;;;1.50;;
11735;SDS011;5924;51.398;7.088;2022-11-18T01:20:50;1.83;;;1.47;;
11735;SDS011;5924;51.398;7.088;2022-11-18T01:23:16;3.47;;;1.70;;
11735;SDS011;5924;51.398;7.088;2022-11-18T01:25:43;1.80;;;1.70;;
11735;SDS011;5924;51.398;7.088;2022-11-18T01:28:11;4.63;;;2.23;;
11735;SDS011;5924;51.398;7.088;2022-11-18T01:30:37;3.00;;;1.37;;
11735;SDS011;5924;51.398;7.088;2022-11-18T01:33:04;2.77;;;1.73;;
11735;SDS011;5924;51.398;7.088;2022-11-18T01:35:37;1.40;;;1.30;;
11735;SDS011;5924;51.398;7.088;2022-11-18T01:38:04;2.27;;;1.63;;
11735;SDS011;5924;51.398;7.088;2022-11-18T01:40:30;2.37;;;1.87;;
11735;SDS011;5924;51.398;7.088;2022-11-18T01:42:57;6.50;;;2.07;;
11735;SDS011;5924;51.398;7.088;2022-11-18T01:45:38;4.00;;;1.40;;
11735;SDS011;5924;51.398;7.088;2022-11-18T01:50:47;1.80;;;1.70;;
11735;SDS011;5924;51.398;7.088;2022-11-18T01:53:22;2.57;;;1.70;;
11735;SDS011;5924;51.398;7.088;2022-11-18T01:55:53;1.57;;;1.47;;
11735;SDS011;5924;51.398;7.088;2022-11-18T01:58:23;4.87;;;1.63;;
11735;SDS011;5924;51.398;7.088;2022-11-18T02:00:50;3.20;;;1.93;;
11735;SDS011;5924;51.398;7.088;2022-11-18T02:03:16;1.83;;;1.30;;
11735;SDS011;5924;51.398;7.088;2022-11-18T02:05:45;4.27;;;1.50;;
11735;SDS011;5924;51.398;7.088;2022-11-18T02:08:13;4.63;;;1.70;;
11735;SDS011;5924;51.398;7.088;2022-11-18T02:10:41;3.27;;;1.80;;
11735;SDS011;5924;51.398;7.088;2022-11-18T02:13:07;1.77;;;1.57;;
11735;SDS011;5924;51.398;7.088;2022-11-18T02:21:06;3.17;;;1.40;;
11735;SDS011;5924;51.398;7.088;2022-11-18T02:29:11;2.03;;;1.90;;
11735;SDS011;5924;51.398;7.088;2022-11-18T02:35:02;2.70;;;1.63;;
11735;SDS011;5924;51.398;7.088;2022-11-18T02:37:44;1.70;;;1.60;;
11735;SDS011;5924;51.398;7.088;2022-11-18T02:40:23;2.73;;;1.10;;
11735;SDS011;5924;51.398;7.088;2022-11-18T02:43:11;1.43;;;1.33;;
11735;SDS011;5924;51.398;7.088;2022-11-18T02:45:43;2.50;;;1.40;;
11735;SDS011;5924;51.398;7.088;2022-11-18T02:48:13;1.77;;;1.30;;
11735;SDS011;5924;51.398;7.088;2022-11-18T02:50:41;2.20;;;1.50;;
11735;SDS011;5924;51.398;7.088;2022-11-18T02:53:09;2.40;;;1.63;;
11735;SDS011;5924;51.398;7.088;2022-11-18T02:55:38;1.27;;;1.27;;
11735;SDS011;5924;51.398;7.088;2022-11-18T02:58:05;2.33;;;2.23;;
11735;SDS011;5924;51.398;7.088;2022-11-18T03:00:32;2.03;;;1.73;;
11735;SDS011;5924;51.398;7.088;2022-11-18T03:02:58;2.17;;;2.00;;
11735;SDS011;5924;51.398;7.088;2022-11-18T03:08:14;2.20;;;1.63;;
11735;SDS011;5924;51.398;7.088;2022-11-18T03:10:51;1.63;;;1.50;;
11735;SDS011;5924;51.398;7.088;2022-11-18T03:13:29;1.63;;;1.57;;
11735;SDS011;5924;51.398;7.088;2022-11-18T03:16:10;2.53;;;1.57;;
11735;SDS011;5924;51.398;7.088;2022-11-18T03:18:51;3.13;;;1.67;;
11735;SDS011;5924;51.398;7.088;2022-11-18T03:21:28;1.30;;;1.30;;
11735;SDS011;5924;51.398;7.088;2022-11-18T03:26:35;4.03;;;2.67;;
11735;SDS011;5924;51.398;7.088;2022-11-18T03:29:07;1.20;;;1.20;;
11735;SDS011;5924;51.398;7.088;2022-11-18T03:31:40;6.70;;;1.40;;
11735;SDS011;5924;51.398;7.088;2022-11-18T03:34:12;3.03;;;2.00;;
11735;SDS011;5924;51.398;7.088;2022-11-18T03:36:59;4.43;;;2.13;;
11735;SDS011;5924;51.398;7.088;2022-11-18T03:39:30;2.00;;;1.90;;
11735;SDS011;5924;51.398;7.088;2022-11-18T03:42:01;4.07;;;2.60;;
11735;SDS011;5924;51.398;7.088;2022-11-18T03:44:35;5.27;;;2.17;;
11735;SDS011;5924;51.398;7.088;2022-11-18T03:47:05;1.70;;;1.53;;
11735;SDS011;5924;51.398;7.088;2022-11-18T03:49:42;2.00;;;1.77;;
11735;SDS011;5924;51.398;7.088;2022-11-18T03:52:21;2.17;;;2.00;;
11735;SDS011;5924;51.398;7.088;2022-11-18T03:54:54;1.57;;;1.57;;
11735;SDS011;5924;51.398;7.088;2022-11-18T03:57:29;1.60;;;1.50;;
11735;SDS011;5924;51.398;7.088;2022-11-18T04:00:05;1.77;;;1.40;;
11735;SDS011;5924;51.398;7.088;2022-11-18T04:02:44;1.73;;;1.43;;
11735;SDS011;5924;51.398;7.088;2022-11-18T04:05:12;6.00;;;1.73;;
11735;SDS011;5924;51.398;7.088;2022-11-18T04:07:41;2.27;;;1.60;;
11735;SDS011;5924;51.398;7.088;2022-11-18T04:10:17;1.40;;;1.40;;
11735;SDS011;5924;51.398;7.088;2022-11-18T04:12:56;1.40;;;1.40;;
11735;SDS011;5924;51.398;7.088;2022-11-18T04:15:24;4.57;;;1.80;;
11735;SDS011;5924;51.398;7.088;2022-11-18T04:17:49;2.20;;;1.63;;
11735;SDS011;5924;51.398;7.088;2022-11-18T04:20:16;2.77;;;1.97;;
11735;SDS011;5924;51.398;7.088;2022-11-18T04:22:43;4.17;;;1.70;;
11735;SDS011;5924;51.398;7.088;2022-11-18T04:25:09;3.33;;;1.80;;
11735;SDS011;5924;51.398;7.088;2022-11-18T04:27:35;4.30;;;2.00;;
11735;SDS011;5924;51.398;7.088;2022-11-18T04:30:00;2.80;;;1.67;;
11735;SDS011;5924;51.398;7.088;2022-11-18T04:32:27;8.93;;;2.10;;
11735;SDS011;5924;51.398;7.088;2022-11-18T04:34:52;1.57;;;1.57;;
11735;SDS011;5924;51.398;7.088;2022-11-18T04:37:18;1.93;;;1.83;;
11735;SDS011;5924;51.398;7.088;2022-11-18T04:39:44;4.43;;;1.63;;
11735;SDS011;5924;51.398;7.088;2022-11-18T04:42:09;4.10;;;2.10;;
11735;SDS011;5924;51.398;7.088;2022-11-18T04:44:35;7.50;;;2.87;;
11735;SDS011;5924;51.398;7.088;2022-11-18T04:47:02;5.53;;;1.90;;
11735;SDS011;5924;51.398;7.088;2022-11-18T04:49:29;2.20;;;2.10;;
11735;SDS011;5924;51.398;7.088;2022-11-18T04:51:55;4.40;;;1.63;;
11735;SDS011;5924;51.398;7.088;2022-11-18T04:54:21;1.87;;;1.77;;
11735;SDS011;5924;51.398;7.088;2022-11-18T04:56:48;2.83;;;1.87;;
11735;SDS011;5924;51.398;7.088;2022-11-18T04:59:14;2.77;;;1.50;;
11735;SDS011;5924;51.398;7.088;2022-11-18T05:01:45;1.50;;;1.40;;
11735;SDS011;5924;51.398;7.088;2022-11-18T05:04:12;1.70;;;1.60;;
11735;SDS011;5924;51.398;7.088;2022-11-18T05:06:42;2.03;;;1.60;;
11735;SDS011;5924;51.398;7.088;2022-11-18T05:09:09;2.70;;;1.60;;
11735;SDS011;5924;51.398;7.088;2022-11-18T05:11:35;3.33;;;1.67;;
11735;SDS011;5924;51.398;7.088;2022-11-18T05:14:19;9.53;;;1.73;;
11735;SDS011;5924;51.398;7.088;2022-11-18T05:16:45;6.43;;;1.90;;
11735;SDS011;5924;51.398;7.088;2022-11-18T05:19:10;2.60;;;2.40;;
11735;SDS011;5924;51.398;7.088;2022-11-18T05:21:36;4.67;;;2.30;;
11735;SDS011;5924;51.398;7.088;2022-11-18T05:24:02;2.40;;;2.20;;
11735;SDS011;5924;51.398;7.088;2022-11-18T05:26:30;1.73;;;1.63;;
11735;SDS011;5924;51.398;7.088;2022-11-18T05:28:55;3.50;;;2.10;;
11735;SDS011;5924;51.398;7.088;2022-11-18T05:31:21;2.20;;;2.20;;
11735;SDS011;5924;51.398;7.088;2022-11-18T05:33:47;2.20;;;1.97;;
11735;SDS011;5924;51.398;7.088;2022-11-18T05:36:13;21.77;;;2.37;;
11735;SDS011;5924;51.398;7.088;2022-11-18T05:38:41;3.37;;;2.33;;
11735;SDS011;5924;51.398;7.088;2022-11-18T05:41:07;5.23;;;2.30;;
11735;SDS011;5924;51.398;7.088;2022-11-18T05:43:34;2.30;;;2.20;;
11735;SDS011;5924;51.398;7.088;2022-11-18T05:46:00;3.73;;;2.20;;
11735;SDS011;5924;51.398;7.088;2022-11-18T05:48:26;6.30;;;2.53;;
11735;SDS011;5924;51.398;7.088;2022-11-18T05:50:52;2.17;;;2.17;;
11735;SDS011;5924;51.398;7.088;2022-11-18T05:53:19;3.00;;;2.80;;
11735;SDS011;5924;51.398;7.088;2022-11-18T05:58:41;6.30;;;2.57;;
11735;SDS011;5924;51.398;7.088;2022-11-18T06:01:06;3.30;;;2.43;;
11735;SDS011;5924;51.398;7.088;2022-11-18T06:03:34;3.93;;;2.63;;
11735;SDS011;5924;51.398;7.088;2022-11-18T06:06:02;2.90;;;2.70;;
11735;SDS011;5924;51.398;7.088;2022-11-18T06:08:32;3.83;;;1.93;;
11735;SDS011;5924;51.398;7.088;2022-11-18T06:11:01;2.30;;;2.10;;
11735;SDS011;5924;51.398;7.088;2022-11-18T06:13:31;3.53;;;3.13;;
11735;SDS011;5924;51.398;7.088;2022-11-18T06:16:01;5.43;;;2.70;;
11735;SDS011;5924;51.398;7.088;2022-11-18T06:18:28;5.20;;;4.40;;
11735;SDS011;5924;51.398;7.088;2022-11-18T06:20:55;5.73;;;4.00;;
11735;SDS011;5924;51.398;7.088;2022-11-18T06:23:27;4.90;;;3.73;;
11735;SDS011;5924;51.398;7.088;2022-11-18T06:25:55;5.00;;;3.07;;
11735;SDS011;5924;51.398;7.088;2022-11-18T06:28:21;16.10;;;2.83;;
11735;SDS011;5924;51.398;7.088;2022-11-18T06:30:47;4.23;;;3.23;;
11735;SDS011;5924;51.398;7.088;2022-11-18T06:33:13;4.20;;;3.00;;
11735;SDS011;5924;51.398;7.088;2022-11-18T06:35:40;8.30;;;3.87;;
11735;SDS011;5924;51.398;7.088;2022-11-18T06:38:06;6.60;;;3.73;;
11735;SDS011;5924;51.398;7.088;2022-11-18T06:40:32;12.93;;;4.00;;
11735;SDS011;5924;51.398;7.088;2022-11-18T06:43:03;7.90;;;3.67;;
11735;SDS011;5924;51.398;7.088;2022-11-18T06:45:51;6.57;;;4.03;;
11735;SDS011;5924;51.398;7.088;2022-11-18T06:48:35;8.17;;;3.90;;
11735;SDS011;5924;51.398;7.088;2022-11-18T06:51:05;8.73;;;4.23;;
11735;SDS011;5924;51.398;7.088;2022-11-18T06:53:32;4.40;;;3.33;;
11735;SDS011;5924;51.398;7.088;2022-11-18T06:56:01;3.90;;;3.10;;
11735;SDS011;5924;51.398;7.088;2022-11-18T06:58:31;7.80;;;3.87;;
11735;SDS011;5924;51.398;7.088;2022-11-18T07:00:56;3.40;;;3.20;;
11735;SDS011;5924;51.398;7.088;2022-11-18T07:03:22;10.93;;;3.33;;
11735;SDS011;5924;51.398;7.088;2022-11-18T07:05:48;9.50;;;3.30;;
11735;SDS011;5924;51.398;7.088;2022-11-18T07:08:13;13.23;;;4.17;;
11735;SDS011;5924;51.398;7.088;2022-11-18T07:10:39;4.77;;;3.70;;
11735;SDS011;5924;51.398;7.088;2022-11-18T07:13:04;9.50;;;4.20;;
11735;SDS011;5924;51.398;7.088;2022-11-18T07:15:30;4.20;;;3.90;;
11735;SDS011;5924;51.398;7.088;2022-11-18T07:17:57;4.37;;;3.43;;
11735;SDS011;5924;51.398;7.088;2022-11-18T07:20:23;5.07;;;3.00;;
11735;SDS011;5924;51.398;7.088;2022-11-18T07:22:51;6.73;;;3.63;;
11735;SDS011;5924;51.398;7.088;2022-11-18T07:25:17;6.30;;;3.83;;
11735;SDS011;5924;51.398;7.088;2022-11-18T07:27:42;7.10;;;4.07;;
11735;SDS011;5924;51.398;7.088;2022-11-18T07:30:08;5.90;;;3.20;;
11735;SDS011;5924;51.398;7.088;2022-11-18T07:32:34;6.63;;;3.50;;
11735;SDS011;5924;51.398;7.088;2022-11-18T07:35:00;5.33;;;3.30;;
11735;SDS011;5924;51.398;7.088;2022-11-18T07:37:25;4.53;;;3.40;;
11735;SDS011;5924;51.398;7.088;2022-11-18T07:39:51;3.17;;;2.90;;
11735;SDS011;5924;51.398;7.088;2022-11-18T07:42:16;3.93;;;3.07;;
11735;SDS011;5924;51.398;7.088;2022-11-18T07:44:42;8.93;;;3.73;;
11735;SDS011;5924;51.398;7.088;2022-11-18T07:47:08;8.70;;;4.97;;
11735;SDS011;5924;51.398;7.088;2022-11-18T07:49:33;8.40;;;3.90;;
11735;SDS011;5924;51.398;7.088;2022-11-18T07:51:59;7.37;;;5.20;;
11735;SDS011;5924;51.398;7.088;2022-11-18T07:54:24;6.70;;;4.87;;
11735;SDS011;5924;51.398;7.088;2022-11-18T07:56:50;9.00;;;4.77;;
11735;SDS011;5924;51.398;7.088;2022-11-18T07:59:15;6.23;;;3.90;;
11735;SDS011;5924;51.398;7.088;2022-11-18T08:01:41;9.53;;;3.53;;
11735;SDS011;5924;51.398;7.088;2022-11-18T08:04:08;3.00;;;2.80;;
11735;SDS011;5924;51.398;7.088;2022-11-18T08:06:34;5.47;;;2.90;;
11735;SDS011;5924;51.398;7.088;2022-11-18T08:09:00;4.07;;;3.40;;
11735;SDS011;5924;51.398;7.088;2022-11-18T08:11:27;3.30;;;2.90;;
11735;SDS011;5924;51.398;7.088;2022-11-18T08:13:53;6.10;;;4.10;;
11735;SDS011;5924;51.398;7.088;2022-11-18T08:16:20;3.73;;;3.13;;
11735;SDS011;5924;51.398;7.088;2022-11-18T08:18:47;3.43;;;3.13;;
11735;SDS011;5924;51.398;7.088;2022-11-18T08:21:13;7.60;;;3.80;;
11735;SDS011;5924;51.398;7.088;2022-11-18T08:23:40;3.33;;;3.13;;
11735;SDS011;5924;51.398;7.088;2022-11-18T08:26:06;3.27;;;3.07;;
11735;SDS011;5924;51.398;7.088;2022-11-18T08:28:40;5.40;;;3.80;;
11735;SDS011;5924;51.398;7.088;2022-11-18T08:34:02;3.90;;;3.23;;
11735;SDS011;5924;51.398;7.088;2022-11-18T08:36:31;4.60;;;4.13;;
11735;SDS011;5924;51.398;7.088;2022-11-18T08:38:59;6.07;;;4.70;;
11735;SDS011;5924;51.398;7.088;2022-11-18T08:41:30;7.10;;;4.93;;
11735;SDS011;5924;51.398;7.088;2022-11-18T08:43:57;5.37;;;4.87;;
11735;SDS011;5924;51.398;7.088;2022-11-18T08:46:23;12.90;;;4.90;;
11735;SDS011;5924;51.398;7.088;2022-11-18T08:48:49;7.80;;;4.33;;
11735;SDS011;5924;51.398;7.088;2022-11-18T08:51:15;10.87;;;4.50;;
11735;SDS011;5924;51.398;7.088;2022-11-18T08:53:41;7.33;;;4.13;;
11735;SDS011;5924;51.398;7.088;2022-11-18T08:56:10;7.47;;;4.20;;
11735;SDS011;5924;51.398;7.088;2022-11-18T08:58:39;3.37;;;3.07;;
11735;SDS011;5924;51.398;7.088;2022-11-18T09:01:05;8.60;;;3.50;;
11735;SDS011;5924;51.398;7.088;2022-11-18T09:03:32;4.33;;;4.03;;
11735;SDS011;5924;51.398;7.088;2022-11-18T09:06:07;2.67;;;2.50;;
11735;SDS011;5924;51.398;7.088;2022-11-18T09:08:34;3.03;;;2.80;;
11735;SDS011;5924;51.398;7.088;2022-11-18T09:11:07;5.13;;;2.83;;
11735;SDS011;5924;51.398;7.088;2022-11-18T09:13:40;2.83;;;2.73;;
11735;SDS011;5924;51.398;7.088;2022-11-18T09:16:06;4.03;;;3.30;;
11735;SDS011;5924;51.398;7.088;2022-11-18T09:18:32;6.80;;;3.20;;
11735;SDS011;5924;51.398;7.088;2022-11-18T09:20:59;4.73;;;2.70;;
11735;SDS011;5924;51.398;7.088;2022-11-18T09:23:27;3.17;;;2.60;;
11735;SDS011;5924;51.398;7.088;2022-11-18T09:25:57;3.53;;;2.90;;
11735;SDS011;5924;51.398;7.088;2022-11-18T09:28:23;3.20;;;2.97;;
11735;SDS011;5924;51.398;7.088;2022-11-18T09:30:48;2.57;;;2.37;;
11735;SDS011;5924;51.398;7.088;2022-11-18T09:33:14;7.00;;;3.57;;
11735;SDS011;5924;51.398;7.088;2022-11-18T09:35:41;5.40;;;3.33;;
11735;SDS011;5924;51.398;7.088;2022-11-18T09:38:07;4.77;;;2.73;;
11735;SDS011;5924;51.398;7.088;2022-11-18T09:40:34;13.77;;;3.03;;
11735;SDS011;5924;51.398;7.088;2022-11-18T09:43:42;7.43;;;2.53;;
11735;SDS011;5924;51.398;7.088;2022-11-18T09:48:56;3.63;;;2.97;;
11735;SDS011;5924;51.398;7.088;2022-11-18T09:51:40;3.43;;;2.37;;
11735;SDS011;5924;51.398;7.088;2022-11-18T09:54:31;6.50;;;2.77;;
11735;SDS011;5924;51.398;7.088;2022-11-18T09:56:59;5.50;;;2.73;;
11735;SDS011;5924;51.398;7.088;2022-11-18T09:59:26;3.07;;;2.57;;
11735;SDS011;5924;51.398;7.088;2022-11-18T10:01:56;7.23;;;2.50;;
11735;SDS011;5924;51.398;7.088;2022-11-18T10:04:27;4.83;;;2.43;;
11735;SDS011;5924;51.398;7.088;2022-11-18T10:06:53;3.90;;;2.53;;
11735;SDS011;5924;51.398;7.088;2022-11-18T10:09:26;7.63;;;2.60;;
11735;SDS011;5924;51.398;7.088;2022-11-18T10:12:20;4.23;;;2.50;;
11735;SDS011;5924;51.398;7.088;2022-11-18T10:25:36;2.47;;;2.27;;
11735;SDS011;5924;51.398;7.088;2022-11-18T10:28:12;3.33;;;2.67;;
11735;SDS011;5924;51.398;7.088;2022-11-18T10:30:49;5.10;;;2.53;;
11735;SDS011;5924;51.398;7.088;2022-11-18T10:35:47;7.40;;;3.10;;
11735;SDS011;5924;51.398;7.088;2022-11-18T10:43:40;5.50;;;3.57;;
11735;SDS011;5924;51.398;7.088;2022-11-18T10:46:17;2.27;;;2.07;;
11735;SDS011;5924;51.398;7.088;2022-11-18T10:51:41;3.73;;;2.50;;
11735;SDS011;5924;51.398;7.088;2022-11-18T10:54:17;2.90;;;2.70;;
11735;SDS011;5924;51.398;7.088;2022-11-18T10:56:49;5.87;;;1.90;;
11735;SDS011;5924;51.398;7.088;2022-11-18T11:04:45;3.30;;;2.30;;
11735;SDS011;5924;51.398;7.088;2022-11-18T11:07:16;2.80;;;2.57;;
11735;SDS011;5924;51.398;7.088;2022-11-18T11:12:34;4.53;;;2.03;;
11735;SDS011;5924;51.398;7.088;2022-11-18T11:15:03;5.43;;;2.10;;
11735;SDS011;5924;51.398;7.088;2022-11-18T11:17:38;4.77;;;2.40;;
11735;SDS011;5924;51.398;7.088;2022-11-18T11:22:41;2.33;;;2.20;;
11735;SDS011;5924;51.398;7.088;2022-11-18T11:37:51;5.97;;;2.27;;
11735;SDS011;5924;51.398;7.088;2022-11-18T11:40:36;3.83;;;2.00;;
11735;SDS011;5924;51.398;7.088;2022-11-18T11:43:29;8.93;;;1.97;;
11735;SDS011;5924;51.398;7.088;2022-11-18T11:46:41;8.67;;;1.97;;
11735;SDS011;5924;51.398;7.088;2022-11-18T11:52:15;4.90;;;1.70;;
11735;SDS011;5924;51.398;7.088;2022-11-18T11:54:53;4.63;;;2.37;;
11735;SDS011;5924;51.398;7.088;2022-11-18T11:57:38;2.20;;;2.10;;
11735;SDS011;5924;51.398;7.088;2022-11-18T12:00:15;3.53;;;2.00;;
11735;SDS011;5924;51.398;7.088;2022-11-18T12:08:19;6.60;;;2.40;;
11735;SDS011;5924;51.398;7.088;2022-11-18T12:10:47;3.57;;;2.30;;
11735;SDS011;5924;51.398;7.088;2022-11-18T12:21:07;4.60;;;2.17;;
11735;SDS011;5924;51.398;7.088;2022-11-18T12:27:04;3.90;;;2.20;;
11735;SDS011;5924;51.398;7.088;2022-11-18T12:29:54;3.03;;;1.67;;
11735;SDS011;5924;51.398;7.088;2022-11-18T12:34:56;5.70;;;2.47;;
11735;SDS011;5924;51.398;7.088;2022-11-18T12:50:57;5.40;;;2.20;;
11735;SDS011;5924;51.398;7.088;2022-11-18T12:53:31;6.97;;;2.07;;
11735;SDS011;5924;51.398;7.088;2022-11-18T12:56:19;7.40;;;1.70;;
11735;SDS011;5924;51.398;7.088;2022-11-18T12:58:51;8.73;;;1.90;;
11735;SDS011;5924;51.398;7.088;2022-11-18T13:01:19;5.50;;;2.10;;
11735;SDS011;5924;51.398;7.088;2022-11-18T13:04:08;6.00;;;2.90;;
11735;SDS011;5924;51.398;7.088;2022-11-18T13:06:39;3.70;;;2.20;;
11735;SDS011;5924;51.398;7.088;2022-11-18T13:09:11;6.33;;;1.80;;
11735;SDS011;5924;51.398;7.088;2022-11-18T13:11:44;3.70;;;1.50;;
11735;SDS011;5924;51.398;7.088;2022-11-18T13:14:17;2.97;;;1.60;;
11735;SDS011;5924;51.398;7.088;2022-11-18T13:22:54;5.40;;;1.50;;
11735;SDS011;5924;51.398;7.088;2022-11-18T13:25:41;3.07;;;1.50;;
11735;SDS011;5924;51.398;7.088;2022-11-18T13:31:14;6.50;;;2.60;;
11735;SDS011;5924;51.398;7.088;2022-11-18T13:33:49;8.27;;;2.33;;
11735;SDS011;5924;51.398;7.088;2022-11-18T13:36:16;5.27;;;1.70;;
11735;SDS011;5924;51.398;7.088;2022-11-18T13:38:57;6.23;;;2.20;;
11735;SDS011;5924;51.398;7.088;2022-11-18T13:41:24;1.47;;;1.27;;
11735;SDS011;5924;51.398;7.088;2022-11-18T13:52:14;2.63;;;1.43;;
11735;SDS011;5924;51.398;7.088;2022-11-18T13:54:48;6.67;;;1.47;;
11735;SDS011;5924;51.398;7.088;2022-11-18T13:57:16;3.30;;;2.13;;
11735;SDS011;5924;51.398;7.088;2022-11-18T13:59:44;4.03;;;1.80;;
11735;SDS011;5924;51.398;7.088;2022-11-18T14:02:12;9.80;;;2.50;;
11735;SDS011;5924;51.398;7.088;2022-11-18T14:04:46;5.80;;;2.80;;
11735;SDS011;5924;51.398;7.088;2022-11-18T14:07:31;4.37;;;1.77;;
11735;SDS011;5924;51.398;7.088;2022-11-18T14:10:00;7.50;;;2.10;;
11735;SDS011;5924;51.398;7.088;2022-11-18T14:12:29;3.87;;;1.53;;
11735;SDS011;5924;51.398;7.088;2022-11-18T14:18:00;4.40;;;1.70;;
11735;SDS011;5924;51.398;7.088;2022-11-18T14:20:27;8.83;;;4.17;;
11735;SDS011;5924;51.398;7.088;2022-11-18T14:22:58;10.67;;;3.37;;
11735;SDS011;5924;51.398;7.088;2022-11-18T14:25:29;4.80;;;2.17;;
11735;SDS011;5924;51.398;7.088;2022-11-18T14:28:08;6.33;;;2.03;;
11735;SDS011;5924;51.398;7.088;2022-11-18T14:30:41;13.33;;;5.77;;
11735;SDS011;5924;51.398;7.088;2022-11-18T14:35:58;9.23;;;4.17;;
11735;SDS011;5924;51.398;7.088;2022-11-18T14:38:45;3.17;;;2.10;;
11735;SDS011;5924;51.398;7.088;2022-11-18T14:41:11;1.80;;;1.70;;
11735;SDS011;5924;51.398;7.088;2022-11-18T14:44:02;2.50;;;2.30;;
11735;SDS011;5924;51.398;7.088;2022-11-18T14:46:28;4.90;;;2.57;;
11735;SDS011;5924;51.398;7.088;2022-11-18T14:48:54;3.13;;;2.30;;
11735;SDS011;5924;51.398;7.088;2022-11-18T14:51:20;4.40;;;1.90;;
11735;SDS011;5924;51.398;7.088;2022-11-18T14:53:46;2.57;;;2.47;;
11735;SDS011;5924;51.398;7.088;2022-11-18T14:56:32;2.40;;;2.13;;
11735;SDS011;5924;51.398;7.088;2022-11-18T14:58:58;3.13;;;2.80;;
11735;SDS011;5924;51.398;7.088;2022-11-18T15:01:24;4.03;;;3.50;;
11735;SDS011;5924;51.398;7.088;2022-11-18T15:03:51;25.87;;;7.63;;
11735;SDS011;5924;51.398;7.088;2022-11-18T15:06:18;27.73;;;8.43;;
11735;SDS011;5924;51.398;7.088;2022-11-18T15:08:45;36.03;;;9.70;;
11735;SDS011;5924;51.398;7.088;2022-11-18T15:11:13;35.00;;;11.77;;
11735;SDS011;5924;51.398;7.088;2022-11-18T15:13:39;18.83;;;7.13;;
11735;SDS011;5924;51.398;7.088;2022-11-18T15:16:16;18.57;;;6.10;;
11735;SDS011;5924;51.398;7.088;2022-11-18T15:18:43;22.97;;;7.80;;
11735;SDS011;5924;51.398;7.088;2022-11-18T15:21:11;43.60;;;13.63;;
11735;SDS011;5924;51.398;7.088;2022-11-18T15:23:37;38.50;;;13.57;;
11735;SDS011;5924;51.398;7.088;2022-11-18T15:26:08;43.43;;;12.47;;
11735;SDS011;5924;51.398;7.088;2022-11-18T15:28:47;49.60;;;14.53;;
11735;SDS011;5924;51.398;7.088;2022-11-18T15:31:15;53.13;;;14.53;;
11735;SDS011;5924;51.398;7.088;2022-11-18T15:33:41;59.67;;;16.00;;
11735;SDS011;5924;51.398;7.088;2022-11-18T15:36:11;70.33;;;23.57;;
11735;SDS011;5924;51.398;7.088;2022-11-18T15:38:38;64.80;;;26.20;;
11735;SDS011;5924;51.398;7.088;2022-11-18T15:41:04;82.80;;;39.17;;
11735;SDS011;5924;51.398;7.088;2022-11-18T15:43:31;75.30;;;40.60;;
11735;SDS011;5924;51.398;7.088;2022-11-18T15:45:57;58.97;;;34.80;;
11735;SDS011;5924;51.398;7.088;2022-11-18T15:48:22;45.93;;;28.80;;
11735;SDS011;5924;51.398;7.088;2022-11-18T15:50:48;33.83;;;23.10;;
11735;SDS011;5924;51.398;7.088;2022-11-18T15:53:14;23.77;;;17.40;;
11735;SDS011;5924;51.398;7.088;2022-11-18T15:55:40;22.03;;;16.00;;
11735;SDS011;5924;51.398;7.088;2022-11-18T15:58:05;18.07;;;11.93;;
11735;SDS011;5924;51.398;7.088;2022-11-18T16:00:31;10.30;;;8.77;;
11735;SDS011;5924;51.398;7.088;2022-11-18T16:02:57;15.83;;;8.47;;
11735;SDS011;5924;51.398;7.088;2022-11-18T16:05:22;11.13;;;8.47;;
11735;SDS011;5924;51.398;7.088;2022-11-18T16:07:48;7.53;;;6.57;;
11735;SDS011;5924;51.398;7.088;2022-11-18T16:10:13;19.90;;;7.83;;
11735;SDS011;5924;51.398;7.088;2022-11-18T16:12:57;16.60;;;7.70;;
11735;SDS011;5924;51.398;7.088;2022-11-18T16:15:23;9.57;;;6.43;;
11735;SDS011;5924;51.398;7.088;2022-11-18T16:18:07;13.10;;;7.20;;
11735;SDS011;5924;51.398;7.088;2022-11-18T16:20:33;6.27;;;5.33;;
11735;SDS011;5924;51.398;7.088;2022-11-18T16:22:58;9.63;;;6.27;;
11735;SDS011;5924;51.398;7.088;2022-11-18T16:25:24;5.63;;;5.20;;
11735;SDS011;5924;51.398;7.088;2022-11-18T16:27:51;13.17;;;5.97;;
11735;SDS011;5924;51.398;7.088;2022-11-18T16:30:17;12.83;;;7.33;;
11735;SDS011;5924;51.398;7.088;2022-11-18T16:33:01;14.50;;;7.80;;
11735;SDS011;5924;51.398;7.088;2022-11-18T16:35:27;12.60;;;8.67;;
11735;SDS011;5924;51.398;7.088;2022-11-18T16:37:53;12.00;;;9.67;;
11735;SDS011;5924;51.398;7.088;2022-11-18T16:40:19;15.30;;;11.00;;
11735;SDS011;5924;51.398;7.088;2022-11-18T16:42:48;16.57;;;10.60;;
11735;SDS011;5924;51.398;7.088;2022-11-18T16:45:14;15.87;;;11.50;;
11735;SDS011;5924;51.398;7.088;2022-11-18T16:47:43;20.63;;;10.53;;
11735;SDS011;5924;51.398;7.088;2022-11-18T16:50:09;11.90;;;9.90;;
11735;SDS011;5924;51.398;7.088;2022-11-18T16:52:36;12.40;;;8.90;;
11735;SDS011;5924;51.398;7.088;2022-11-18T16:55:01;12.07;;;8.83;;
11735;SDS011;5924;51.398;7.088;2022-11-18T16:57:27;10.20;;;8.20;;
11735;SDS011;5924;51.398;7.088;2022-11-18T16:59:53;11.57;;;7.60;;
11735;SDS011;5924;51.398;7.088;2022-11-18T17:02:18;7.83;;;7.00;;
11735;SDS011;5924;51.398;7.088;2022-11-18T17:04:44;9.03;;;7.87;;
11735;SDS011;5924;51.398;7.088;2022-11-18T17:07:10;8.23;;;7.20;;
11735;SDS011;5924;51.398;7.088;2022-11-18T17:09:37;12.93;;;9.07;;
11735;SDS011;5924;51.398;7.088;2022-11-18T17:12:02;16.63;;;7.40;;
11735;SDS011;5924;51.398;7.088;2022-11-18T17:14:28;10.53;;;8.60;;
11735;SDS011;5924;51.398;7.088;2022-11-18T17:16:54;13.73;;;7.93;;
11735;SDS011;5924;51.398;7.088;2022-11-18T17:19:21;13.17;;;8.43;;
11735;SDS011;5924;51.398;7.088;2022-11-18T17:21:48;14.20;;;8.13;;
11735;SDS011;5924;51.398;7.088;2022-11-18T17:24:16;8.77;;;8.03;;
11735;SDS011;5924;51.398;7.088;2022-11-18T17:26:43;14.07;;;10.40;;
11735;SDS011;5924;51.398;7.088;2022-11-18T17:29:09;11.97;;;8.57;;
11735;SDS011;5924;51.398;7.088;2022-11-18T17:31:36;11.83;;;9.80;;
11735;SDS011;5924;51.398;7.088;2022-11-18T17:34:02;11.47;;;10.10;;